createdAt,value
2023-07-30T00:00:13.737Z,25.66
2023-07-30T00:01:19.459Z,25.65
2023-07-30T00:02:25.379Z,25.66
2023-07-30T00:03:31.157Z,25.66
2023-07-30T00:04:37.071Z,25.65
2023-07-30T00:05:42.781Z,25.65
2023-07-30T00:06:48.421Z,25.64
2023-07-30T00:07:54.126Z,25.64
2023-07-30T00:09:00.027Z,25.64
2023-07-30T00:10:05.842Z,25.65
2023-07-30T00:11:11.654Z,25.65
2023-07-30T00:12:17.556Z,25.66
2023-07-30T00:13:23.304Z,25.64
2023-07-30T00:14:29.053Z,25.65
2023-07-30T00:15:34.720Z,25.64
2023-07-30T00:16:40.633Z,25.65
2023-07-30T00:17:46.454Z,25.65
2023-07-30T00:18:52.188Z,25.64
2023-07-30T00:19:57.850Z,25.64
2023-07-30T00:21:03.569Z,25.64
2023-07-30T00:22:09.396Z,25.64
2023-07-30T00:23:15.099Z,25.64
2023-07-30T00:24:20.772Z,25.62
2023-07-30T00:25:26.492Z,25.62
2023-07-30T00:26:32.218Z,25.63
2023-07-30T00:27:38.404Z,25.62
2023-07-30T00:28:44.127Z,25.62
2023-07-30T00:29:49.817Z,25.62
2023-07-30T00:30:55.685Z,25.61
2023-07-30T00:32:01.416Z,25.61
2023-07-30T00:33:07.086Z,25.61
2023-07-30T00:34:12.813Z,25.61
2023-07-30T00:35:18.408Z,25.62
2023-07-30T00:36:24.023Z,25.62
2023-07-30T00:37:29.580Z,25.61
2023-07-30T00:38:35.055Z,25.61
2023-07-30T00:39:40.606Z,25.6
2023-07-30T00:40:46.136Z,25.6
2023-07-30T00:41:51.710Z,25.6
2023-07-30T00:42:57.247Z,25.6
2023-07-30T00:44:02.771Z,25.59
2023-07-30T00:45:08.422Z,25.61
2023-07-30T00:46:14.212Z,25.6
2023-07-30T00:47:19.802Z,25.59
2023-07-30T00:48:25.366Z,25.58
2023-07-30T00:49:31.052Z,25.58
2023-07-30T00:50:36.581Z,25.57
2023-07-30T00:51:42.208Z,25.56
2023-07-30T00:52:47.800Z,25.57
2023-07-30T00:53:53.373Z,25.58
2023-07-30T00:54:59.019Z,25.58
2023-07-30T00:56:04.717Z,25.58
2023-07-30T00:57:10.271Z,25.57
2023-07-30T00:58:15.820Z,25.57
2023-07-30T00:59:21.413Z,25.56
2023-07-30T01:00:27.108Z,25.57
2023-07-30T01:01:32.675Z,25.56
2023-07-30T01:02:39.190Z,25.57
2023-07-30T01:03:44.898Z,25.57
2023-07-30T01:04:50.497Z,25.57
2023-07-30T01:05:56.134Z,25.57
2023-07-30T01:07:01.631Z,25.56
2023-07-30T01:08:07.134Z,25.55
2023-07-30T01:09:12.632Z,25.55
2023-07-30T01:10:18.167Z,25.55
2023-07-30T01:11:23.690Z,25.54
2023-07-30T01:12:29.160Z,25.54
2023-07-30T01:13:34.655Z,25.56
2023-07-30T01:14:40.186Z,25.55
2023-07-30T01:15:45.687Z,25.55
2023-07-30T01:16:51.442Z,25.55
2023-07-30T01:17:57.228Z,25.55
2023-07-30T01:19:02.826Z,25.55
2023-07-30T01:20:08.422Z,25.54
2023-07-30T01:21:13.943Z,25.54
2023-07-30T01:22:19.520Z,25.53
2023-07-30T01:23:25.113Z,25.54
2023-07-30T01:24:30.681Z,25.55
2023-07-30T01:25:36.448Z,25.55
2023-07-30T01:26:42.296Z,25.54
2023-07-30T01:27:48.075Z,25.54
2023-07-30T01:28:53.860Z,25.54
2023-07-30T01:29:59.593Z,25.55
2023-07-30T01:31:05.463Z,25.54
2023-07-30T01:32:11.377Z,25.53
2023-07-30T01:33:17.252Z,25.54
2023-07-30T01:34:23.220Z,25.54
2023-07-30T01:35:29.035Z,25.53
2023-07-30T01:36:34.886Z,25.52
2023-07-30T01:37:40.674Z,25.53
2023-07-30T01:38:46.361Z,25.53
2023-07-30T01:39:52.098Z,25.54
2023-07-30T01:40:57.791Z,25.54
2023-07-30T01:42:03.612Z,25.52
2023-07-30T01:43:09.309Z,25.52
2023-07-30T01:44:14.960Z,25.51
2023-07-30T01:45:20.611Z,25.51
2023-07-30T01:46:26.289Z,25.52
2023-07-30T01:47:32.115Z,25.5
2023-07-30T01:48:38.070Z,25.5
2023-07-30T01:49:43.828Z,25.51
2023-07-30T01:50:49.569Z,25.51
2023-07-30T01:51:55.513Z,25.51
2023-07-30T01:53:01.266Z,25.52
2023-07-30T01:54:06.901Z,25.51
2023-07-30T01:55:12.506Z,25.52
2023-07-30T01:56:18.142Z,25.51
2023-07-30T01:57:23.716Z,25.5
2023-07-30T01:58:29.374Z,25.51
2023-07-30T01:59:35.011Z,25.51
2023-07-30T02:00:40.602Z,25.52
2023-07-30T02:01:46.251Z,25.51
2023-07-30T02:02:52.055Z,25.52
2023-07-30T02:03:58.120Z,25.51
2023-07-30T02:05:04.020Z,25.52
2023-07-30T02:06:09.564Z,25.5
2023-07-30T02:07:15.104Z,25.51
2023-07-30T02:08:20.624Z,25.52
2023-07-30T02:09:26.244Z,25.52
2023-07-30T02:10:31.806Z,25.52
2023-07-30T02:11:37.560Z,25.51
2023-07-30T02:12:43.610Z,25.52
2023-07-30T02:13:49.128Z,25.5
2023-07-30T02:14:54.704Z,25.52
2023-07-30T02:16:00.245Z,25.51
2023-07-30T02:17:05.941Z,25.5
2023-07-30T02:18:11.742Z,25.51
2023-07-30T02:19:17.529Z,25.51
2023-07-30T02:20:23.129Z,25.5
2023-07-30T02:21:28.751Z,25.51
2023-07-30T02:22:34.304Z,25.5
2023-07-30T02:23:39.921Z,25.49
2023-07-30T02:24:45.536Z,25.49
2023-07-30T02:25:51.192Z,25.49
2023-07-30T02:26:56.904Z,25.48
2023-07-30T02:28:02.568Z,25.49
2023-07-30T02:29:08.296Z,25.48
2023-07-30T02:30:13.935Z,25.49
2023-07-30T02:31:19.575Z,25.48
2023-07-30T02:32:25.439Z,25.48
2023-07-30T02:33:31.178Z,25.47
2023-07-30T02:34:36.740Z,25.47
2023-07-30T02:35:42.377Z,25.47
2023-07-30T02:36:47.943Z,25.47
2023-07-30T02:37:53.549Z,25.47
2023-07-30T02:38:59.147Z,25.48
2023-07-30T02:40:04.771Z,25.47
2023-07-30T02:41:10.356Z,25.47
2023-07-30T02:42:15.992Z,25.47
2023-07-30T02:43:21.572Z,25.47
2023-07-30T02:44:27.154Z,25.47
2023-07-30T02:45:32.674Z,25.45
2023-07-30T02:46:38.324Z,25.46
2023-07-30T02:47:44.057Z,25.45
2023-07-30T02:48:49.718Z,25.46
2023-07-30T02:49:55.241Z,25.48
2023-07-30T02:51:00.726Z,25.48
2023-07-30T02:52:06.252Z,25.48
2023-07-30T02:53:11.817Z,25.48
2023-07-30T02:54:17.418Z,25.48
2023-07-30T02:55:22.922Z,25.47
2023-07-30T02:56:28.422Z,25.47
2023-07-30T02:57:33.929Z,25.47
2023-07-30T02:58:39.416Z,25.48
2023-07-30T02:59:44.961Z,25.48
2023-07-30T03:00:50.503Z,25.49
2023-07-30T03:01:56.165Z,25.48
2023-07-30T03:03:01.866Z,25.47
2023-07-30T03:04:07.766Z,25.48
2023-07-30T03:05:13.300Z,25.47
2023-07-30T03:06:18.797Z,25.46
2023-07-30T03:07:24.331Z,25.47
2023-07-30T03:08:29.844Z,25.47
2023-07-30T03:09:35.405Z,25.46
2023-07-30T03:10:40.925Z,25.46
2023-07-30T03:11:47.453Z,25.45
2023-07-30T03:12:53.012Z,25.46
2023-07-30T03:13:58.645Z,25.47
2023-07-30T03:15:04.153Z,25.48
2023-07-30T03:16:09.645Z,25.48
2023-07-30T03:17:15.155Z,25.48
2023-07-30T03:18:20.765Z,25.47
2023-07-30T03:19:26.314Z,25.47
2023-07-30T03:20:31.892Z,25.48
2023-07-30T03:21:37.579Z,25.47
2023-07-30T03:22:43.639Z,25.48
2023-07-30T03:23:49.268Z,25.47
2023-07-30T03:24:54.864Z,25.45
2023-07-30T03:26:00.402Z,25.45
2023-07-30T03:27:06.020Z,25.45
2023-07-30T03:28:11.625Z,25.45
2023-07-30T03:29:17.246Z,25.46
2023-07-30T03:30:22.810Z,25.46
2023-07-30T03:31:28.405Z,25.46
2023-07-30T03:32:34.165Z,25.46
2023-07-30T03:33:39.923Z,25.45
2023-07-30T03:34:45.437Z,25.45
2023-07-30T03:35:51.087Z,25.46
2023-07-30T03:36:57.351Z,25.45
2023-07-30T03:38:05.729Z,25.44
2023-07-30T03:39:11.325Z,25.45
2023-07-30T03:40:16.908Z,25.45
2023-07-30T03:41:22.497Z,25.43
2023-07-30T03:42:28.073Z,25.43
2023-07-30T03:43:33.705Z,25.43
2023-07-30T03:44:39.246Z,25.44
2023-07-30T03:45:44.833Z,25.43
2023-07-30T03:46:50.424Z,25.43
2023-07-30T03:47:56.181Z,25.44
2023-07-30T03:49:01.768Z,25.43
2023-07-30T03:50:07.388Z,25.42
2023-07-30T03:51:12.979Z,25.43
2023-07-30T03:52:18.701Z,25.43
2023-07-30T03:53:24.319Z,25.43
2023-07-30T03:54:30.006Z,25.42
2023-07-30T03:55:35.705Z,25.42
2023-07-30T03:56:41.370Z,25.44
2023-07-30T03:57:47.000Z,25.45
2023-07-30T03:58:52.642Z,25.46
2023-07-30T03:59:58.402Z,25.44
2023-07-30T04:01:04.092Z,25.43
2023-07-30T04:02:09.797Z,25.42
2023-07-30T04:03:15.544Z,25.41
2023-07-30T04:04:21.489Z,25.42
2023-07-30T04:05:27.063Z,25.41
2023-07-30T04:06:32.734Z,25.4
2023-07-30T04:07:40.778Z,25.4
2023-07-30T04:08:46.790Z,25.4
2023-07-30T04:09:52.412Z,25.39
2023-07-30T04:10:58.047Z,25.39
2023-07-30T04:12:03.619Z,25.39
2023-07-30T04:13:09.290Z,25.39
2023-07-30T04:14:14.855Z,25.39
2023-07-30T04:15:20.486Z,25.38
2023-07-30T04:16:26.134Z,25.38
2023-07-30T04:17:31.911Z,25.38
2023-07-30T04:18:37.673Z,25.38
2023-07-30T04:19:43.282Z,25.37
2023-07-30T04:20:48.994Z,25.36
2023-07-30T04:21:54.616Z,25.37
2023-07-30T04:23:00.305Z,25.39
2023-07-30T04:24:05.982Z,25.4
2023-07-30T04:25:11.704Z,25.4
2023-07-30T04:26:17.421Z,25.4
2023-07-30T04:27:23.093Z,25.41
2023-07-30T04:28:32.673Z,25.41
2023-07-30T04:29:38.708Z,25.41
2023-07-30T04:30:44.592Z,25.41
2023-07-30T04:31:50.479Z,25.4
2023-07-30T04:32:56.155Z,25.4
2023-07-30T04:34:01.829Z,25.39
2023-07-30T04:35:07.417Z,25.39
2023-07-30T04:36:13.093Z,25.39
2023-07-30T04:37:18.682Z,25.39
2023-07-30T04:38:24.281Z,25.39
2023-07-30T04:39:29.865Z,25.39
2023-07-30T04:40:35.516Z,25.38
2023-07-30T04:41:41.350Z,25.37
2023-07-30T04:42:47.877Z,25.38
2023-07-30T04:43:53.516Z,25.38
2023-07-30T04:44:59.180Z,25.37
2023-07-30T04:46:04.793Z,25.36
2023-07-30T04:47:10.556Z,25.36
2023-07-30T04:48:16.112Z,25.36
2023-07-30T04:49:21.802Z,25.35
2023-07-30T04:50:27.380Z,25.37
2023-07-30T04:51:32.999Z,25.36
2023-07-30T04:52:38.916Z,25.37
2023-07-30T04:53:44.538Z,25.36
2023-07-30T04:54:50.152Z,25.36
2023-07-30T04:55:55.754Z,25.36
2023-07-30T04:57:01.316Z,25.37
2023-07-30T04:58:06.827Z,25.37
2023-07-30T04:59:12.381Z,25.37
2023-07-30T05:00:17.956Z,25.36
2023-07-30T05:01:23.584Z,25.37
2023-07-30T05:02:29.221Z,25.37
2023-07-30T05:03:34.937Z,25.38
2023-07-30T05:04:40.668Z,25.39
2023-07-30T05:05:46.170Z,25.39
2023-07-30T05:06:51.708Z,25.39
2023-07-30T05:07:57.271Z,25.39
2023-07-30T05:09:02.781Z,25.39
2023-07-30T05:10:08.300Z,25.38
2023-07-30T05:11:14.024Z,25.38
2023-07-30T05:12:19.601Z,25.38
2023-07-30T05:13:25.244Z,25.37
2023-07-30T05:14:32.030Z,25.38
2023-07-30T05:15:37.521Z,25.38
2023-07-30T05:16:43.038Z,25.37
2023-07-30T05:17:48.615Z,25.38
2023-07-30T05:18:54.272Z,25.37
2023-07-30T05:19:59.822Z,25.36
2023-07-30T05:21:05.429Z,25.37
2023-07-30T05:22:10.904Z,25.36
2023-07-30T05:23:16.717Z,25.36
2023-07-30T05:24:22.231Z,25.37
2023-07-30T05:25:27.763Z,25.37
2023-07-30T05:26:33.291Z,25.36
2023-07-30T05:27:38.866Z,25.36
2023-07-30T05:28:44.383Z,25.37
2023-07-30T05:29:49.950Z,25.37
2023-07-30T05:30:55.456Z,25.37
2023-07-30T05:32:01.048Z,25.36
2023-07-30T05:33:06.836Z,25.36
2023-07-30T05:34:12.455Z,25.35
2023-07-30T05:35:17.975Z,25.36
2023-07-30T05:36:23.505Z,25.35
2023-07-30T05:37:29.020Z,25.35
2023-07-30T05:38:34.532Z,25.35
2023-07-30T05:39:40.077Z,25.35
2023-07-30T05:40:45.613Z,25.35
2023-07-30T05:41:51.194Z,25.35
2023-07-30T05:42:56.692Z,25.36
2023-07-30T05:44:02.209Z,25.35
2023-07-30T05:45:07.735Z,25.36
2023-07-30T05:46:13.334Z,25.36
2023-07-30T05:47:19.218Z,25.37
2023-07-30T05:48:24.992Z,25.37
2023-07-30T05:49:30.696Z,25.38
2023-07-30T05:50:36.304Z,25.38
2023-07-30T05:51:41.905Z,25.38
2023-07-30T05:52:47.688Z,25.38
2023-07-30T05:53:53.470Z,25.39
2023-07-30T05:54:59.257Z,25.39
2023-07-30T05:56:05.060Z,25.39
2023-07-30T05:57:11.034Z,25.4
2023-07-30T05:58:16.662Z,25.4
2023-07-30T05:59:23.643Z,25.4
2023-07-30T06:00:29.505Z,25.4
2023-07-30T06:01:35.266Z,25.41
2023-07-30T06:02:41.746Z,25.41
2023-07-30T06:03:47.552Z,25.42
2023-07-30T06:04:53.387Z,25.42
2023-07-30T06:05:58.987Z,25.43
2023-07-30T06:07:04.632Z,25.44
2023-07-30T06:08:10.274Z,25.44
2023-07-30T06:09:15.820Z,25.45
2023-07-30T06:10:21.482Z,25.44
2023-07-30T06:11:27.101Z,25.45
2023-07-30T06:12:32.641Z,25.46
2023-07-30T06:13:38.265Z,25.47
2023-07-30T06:14:43.857Z,25.47
2023-07-30T06:15:49.482Z,25.47
2023-07-30T06:16:55.522Z,25.47
2023-07-30T06:18:01.563Z,25.47
2023-07-30T06:19:07.726Z,25.49
2023-07-30T06:20:13.519Z,25.48
2023-07-30T06:21:19.505Z,25.48
2023-07-30T06:22:25.392Z,25.49
2023-07-30T06:23:31.616Z,25.49
2023-07-30T06:24:37.344Z,25.49
2023-07-30T06:25:42.985Z,25.49
2023-07-30T06:26:48.542Z,25.5
2023-07-30T06:27:54.099Z,25.5
2023-07-30T06:28:59.995Z,25.51
2023-07-30T06:30:05.564Z,25.52
2023-07-30T06:31:11.133Z,25.54
2023-07-30T06:32:16.859Z,25.54
2023-07-30T06:33:22.743Z,25.54
2023-07-30T06:34:34.728Z,25.53
2023-07-30T06:35:40.258Z,25.52
2023-07-30T06:36:45.853Z,25.53
2023-07-30T06:37:51.389Z,25.54
2023-07-30T06:38:56.968Z,25.54
2023-07-30T06:40:02.687Z,25.56
2023-07-30T06:41:08.342Z,25.58
2023-07-30T06:42:14.014Z,25.57
2023-07-30T06:43:19.719Z,25.58
2023-07-30T06:44:25.371Z,25.58
2023-07-30T06:45:30.932Z,25.59
2023-07-30T06:46:36.543Z,25.6
2023-07-30T06:47:42.179Z,25.58
2023-07-30T06:48:47.765Z,25.59
2023-07-30T06:49:53.246Z,25.6
2023-07-30T06:50:58.779Z,25.61
2023-07-30T06:52:04.467Z,25.59
2023-07-30T06:53:09.953Z,25.61
2023-07-30T06:54:15.488Z,25.6
2023-07-30T06:55:21.180Z,25.6
2023-07-30T06:56:26.714Z,25.61
2023-07-30T06:57:33.733Z,25.62
2023-07-30T06:58:40.806Z,25.61
2023-07-30T07:01:13.419Z,25.63
2023-07-30T07:02:19.064Z,25.64
2023-07-30T07:03:24.961Z,25.65
2023-07-30T07:04:30.877Z,25.67
2023-07-30T07:05:36.399Z,25.66
2023-07-30T07:06:41.966Z,25.65
2023-07-30T07:07:47.444Z,25.68
2023-07-30T07:08:53.246Z,25.7
2023-07-30T07:09:58.792Z,25.71
2023-07-30T07:11:04.320Z,25.7
2023-07-30T07:12:09.941Z,25.71
2023-07-30T07:13:15.459Z,25.72
2023-07-30T07:14:20.953Z,25.73
2023-07-30T07:15:26.478Z,25.72
2023-07-30T07:16:31.990Z,25.73
2023-07-30T07:17:37.676Z,25.72
2023-07-30T07:18:43.513Z,25.7
2023-07-30T07:19:49.186Z,25.69
2023-07-30T07:20:54.768Z,25.69
2023-07-30T07:22:00.280Z,25.7
2023-07-30T07:23:05.988Z,25.7
2023-07-30T07:24:12.877Z,25.7
2023-07-30T07:25:18.443Z,25.7
2023-07-30T07:26:23.994Z,25.69
2023-07-30T07:27:29.516Z,25.66
2023-07-30T07:28:35.099Z,25.68
2023-07-30T07:29:40.728Z,25.68
2023-07-30T07:30:46.224Z,25.68
2023-07-30T07:31:51.865Z,25.66
2023-07-30T07:32:57.410Z,25.62
2023-07-30T07:34:03.198Z,25.61
2023-07-30T07:35:08.708Z,25.61
2023-07-30T07:36:14.189Z,25.61
2023-07-30T07:37:19.690Z,25.61
2023-07-30T07:38:25.206Z,25.58
2023-07-30T07:39:30.726Z,25.57
2023-07-30T07:40:36.259Z,25.53
2023-07-30T07:41:41.775Z,25.52
2023-07-30T07:42:47.225Z,25.51
2023-07-30T07:43:53.219Z,25.56
2023-07-30T07:44:58.726Z,25.53
2023-07-30T07:46:04.302Z,25.55
2023-07-30T07:47:09.929Z,25.52
2023-07-30T07:48:15.442Z,25.54
2023-07-30T07:49:21.032Z,25.52
2023-07-30T07:50:26.538Z,25.5
2023-07-30T07:51:32.157Z,25.49
2023-07-30T07:52:37.935Z,25.47
2023-07-30T07:53:43.445Z,25.51
2023-07-30T07:54:48.980Z,25.51
2023-07-30T07:55:54.491Z,25.52
2023-07-30T07:56:59.995Z,25.47
2023-07-30T07:58:05.592Z,25.44
2023-07-30T07:59:11.090Z,25.46
2023-07-30T08:00:16.591Z,25.42
2023-07-30T08:01:22.172Z,25.43
2023-07-30T08:02:27.931Z,25.44
2023-07-30T08:03:33.673Z,25.43
2023-07-30T08:04:39.488Z,25.41
2023-07-30T08:05:45.517Z,25.41
2023-07-30T08:06:51.045Z,25.4
2023-07-30T08:07:56.585Z,25.41
2023-07-30T08:09:02.126Z,25.42
2023-07-30T08:10:07.640Z,25.42
2023-07-30T08:11:13.172Z,25.41
2023-07-30T08:12:18.694Z,25.37
2023-07-30T08:13:24.223Z,25.39
2023-07-30T08:14:29.746Z,25.4
2023-07-30T08:15:35.382Z,25.4
2023-07-30T08:16:40.966Z,25.38
2023-07-30T08:17:46.797Z,25.39
2023-07-30T08:18:53.385Z,25.4
2023-07-30T08:19:58.937Z,25.44
2023-07-30T08:21:04.497Z,25.45
2023-07-30T08:22:09.994Z,25.41
2023-07-30T08:23:15.531Z,25.38
2023-07-30T08:24:21.048Z,25.38
2023-07-30T08:25:26.677Z,25.4
2023-07-30T08:26:32.213Z,25.38
2023-07-30T08:27:37.725Z,25.37
2023-07-30T08:28:43.274Z,25.36
2023-07-30T08:29:48.790Z,25.34
2023-07-30T08:30:54.304Z,25.36
2023-07-30T08:31:59.961Z,25.35
2023-07-30T08:33:05.761Z,25.31
2023-07-30T08:34:11.615Z,25.31
2023-07-30T08:35:17.113Z,25.32
2023-07-30T08:36:23.906Z,25.31
2023-07-30T08:37:29.524Z,25.33
2023-07-30T08:38:35.076Z,25.38
2023-07-30T08:39:40.601Z,25.39
2023-07-30T08:40:46.153Z,25.4
2023-07-30T08:41:51.706Z,25.42
2023-07-30T08:42:57.343Z,25.41
2023-07-30T08:44:02.924Z,25.41
2023-07-30T08:45:08.510Z,25.44
2023-07-30T08:46:14.076Z,25.43
2023-07-30T08:47:19.737Z,25.44
2023-07-30T08:48:25.345Z,25.43
2023-07-30T08:49:31.141Z,25.4
2023-07-30T08:50:36.855Z,25.41
2023-07-30T08:51:42.659Z,25.4
2023-07-30T08:52:48.321Z,25.4
2023-07-30T08:53:53.969Z,25.35
2023-07-30T08:54:59.645Z,25.39
2023-07-30T08:56:05.322Z,25.45
2023-07-30T08:57:10.958Z,25.46
2023-07-30T08:58:16.717Z,25.46
2023-07-30T08:59:22.396Z,25.48
2023-07-30T09:00:28.097Z,25.49
2023-07-30T09:01:33.874Z,25.47
2023-07-30T09:02:40.466Z,25.47
2023-07-30T09:03:46.248Z,25.48
2023-07-30T09:04:51.956Z,25.47
2023-07-30T09:05:57.627Z,25.46
2023-07-30T09:07:03.242Z,25.48
2023-07-30T09:08:08.932Z,25.5
2023-07-30T09:09:14.682Z,25.51
2023-07-30T09:10:20.462Z,25.5
2023-07-30T09:11:26.407Z,25.52
2023-07-30T09:12:32.143Z,25.53
2023-07-30T09:13:37.835Z,25.51
2023-07-30T09:14:43.466Z,25.54
2023-07-30T09:15:49.020Z,25.52
2023-07-30T09:16:54.585Z,25.5
2023-07-30T09:18:00.081Z,25.51
2023-07-30T09:19:05.819Z,25.48
2023-07-30T09:20:11.305Z,25.47
2023-07-30T09:21:17.054Z,25.43
2023-07-30T09:22:22.594Z,25.41
2023-07-30T09:23:28.152Z,25.43
2023-07-30T09:24:33.642Z,25.45
2023-07-30T09:25:39.133Z,25.47
2023-07-30T09:26:44.642Z,25.43
2023-07-30T09:27:50.297Z,25.46
2023-07-30T09:28:55.897Z,25.45
2023-07-30T09:30:01.426Z,25.45
2023-07-30T09:31:19.740Z,25.43
2023-07-30T09:32:27.358Z,25.45
2023-07-30T09:33:32.960Z,25.43
2023-07-30T09:34:38.467Z,25.41
2023-07-30T09:35:43.944Z,25.41
2023-07-30T09:36:51.393Z,25.43
2023-07-30T09:37:57.878Z,25.42
2023-07-30T09:39:03.415Z,25.44
2023-07-30T09:40:08.917Z,25.45
2023-07-30T09:41:14.452Z,25.44
2023-07-30T09:42:20.208Z,25.43
2023-07-30T09:43:25.697Z,25.41
2023-07-30T09:44:31.562Z,25.36
2023-07-30T09:45:37.389Z,25.41
2023-07-30T09:46:43.302Z,25.38
2023-07-30T09:47:48.980Z,25.41
2023-07-30T09:48:54.700Z,25.41
2023-07-30T09:50:00.283Z,25.42
2023-07-30T09:51:05.968Z,25.41
2023-07-30T09:52:11.606Z,25.42
2023-07-30T09:53:17.213Z,25.4
2023-07-30T09:54:22.948Z,25.42
2023-07-30T09:55:28.702Z,25.4
2023-07-30T09:56:34.406Z,25.4
2023-07-30T09:57:40.014Z,25.4
2023-07-30T09:58:45.709Z,25.4
2023-07-30T09:59:51.413Z,25.41
2023-07-30T10:00:57.127Z,25.42
2023-07-30T10:02:02.969Z,25.38
2023-07-30T10:03:08.652Z,25.38
2023-07-30T10:04:14.468Z,25.37
2023-07-30T10:05:20.211Z,25.38
2023-07-30T10:06:25.934Z,25.37
2023-07-30T10:07:31.614Z,25.38
2023-07-30T10:08:37.369Z,25.38
2023-07-30T10:09:43.001Z,25.39
2023-07-30T10:10:48.692Z,25.41
2023-07-30T10:11:54.931Z,25.42
2023-07-30T10:13:00.797Z,25.4
2023-07-30T10:14:06.445Z,25.4
2023-07-30T10:15:12.228Z,25.39
2023-07-30T10:16:17.893Z,25.41
2023-07-30T10:17:23.569Z,25.37
2023-07-30T10:18:29.209Z,25.32
2023-07-30T10:19:35.021Z,25.33
2023-07-30T10:20:40.828Z,25.32
2023-07-30T10:21:46.474Z,25.35
2023-07-30T10:22:52.224Z,25.34
2023-07-30T10:23:58.949Z,25.3
2023-07-30T10:25:07.494Z,25.35
2023-07-30T10:26:13.156Z,25.34
2023-07-30T10:27:18.837Z,25.36
2023-07-30T10:28:24.695Z,25.37
2023-07-30T10:29:30.484Z,25.38
2023-07-30T10:30:36.253Z,25.39
2023-07-30T10:31:41.948Z,25.39
2023-07-30T10:32:47.670Z,25.4
2023-07-30T10:33:53.459Z,25.42
2023-07-30T10:34:59.257Z,25.41
2023-07-30T10:36:04.925Z,25.41
2023-07-30T10:37:10.614Z,25.39
2023-07-30T10:38:16.249Z,25.4
2023-07-30T10:39:21.880Z,25.4
2023-07-30T10:40:27.541Z,25.4
2023-07-30T10:41:33.278Z,25.4
2023-07-30T10:42:39.383Z,25.41
2023-07-30T10:43:45.033Z,25.42
2023-07-30T10:44:50.826Z,25.42
2023-07-30T10:45:58.007Z,25.42
2023-07-30T10:47:04.219Z,25.43
2023-07-30T10:48:10.156Z,25.43
2023-07-30T10:49:15.993Z,25.45
2023-07-30T10:50:21.514Z,25.44
2023-07-30T10:51:28.949Z,25.43
2023-07-30T10:52:38.598Z,25.4
2023-07-30T10:53:44.066Z,25.42
2023-07-30T10:54:49.574Z,25.42
2023-07-30T10:55:55.081Z,25.43
2023-07-30T10:57:00.650Z,25.44
2023-07-30T10:58:06.211Z,25.44
2023-07-30T10:59:11.705Z,25.46
2023-07-30T11:00:17.228Z,25.46
2023-07-30T11:01:22.892Z,25.45
2023-07-30T11:02:28.946Z,25.48
2023-07-30T11:03:35.149Z,25.46
2023-07-30T11:04:41.070Z,25.46
2023-07-30T11:05:46.702Z,25.44
2023-07-30T11:06:52.322Z,25.45
2023-07-30T11:07:58.004Z,25.43
2023-07-30T11:09:03.576Z,25.47
2023-07-30T11:10:09.206Z,25.5
2023-07-30T11:11:14.794Z,25.46
2023-07-30T11:12:20.479Z,25.45
2023-07-30T11:13:26.256Z,25.46
2023-07-30T11:14:31.889Z,25.46
2023-07-30T11:15:37.676Z,25.46
2023-07-30T11:16:43.279Z,25.46
2023-07-30T11:17:49.113Z,25.46
2023-07-30T11:18:54.881Z,25.45
2023-07-30T11:20:00.726Z,25.43
2023-07-30T11:21:06.359Z,25.43
2023-07-30T11:22:11.946Z,25.43
2023-07-30T11:23:17.472Z,25.35
2023-07-30T11:24:23.014Z,25.4
2023-07-30T11:25:28.721Z,25.4
2023-07-30T11:26:34.355Z,25.41
2023-07-30T11:27:39.984Z,25.44
2023-07-30T11:28:45.524Z,25.48
2023-07-30T11:29:51.112Z,25.5
2023-07-30T11:30:56.600Z,25.47
2023-07-30T11:32:02.126Z,25.47
2023-07-30T11:33:07.785Z,25.47
2023-07-30T11:34:13.437Z,25.46
2023-07-30T11:35:18.988Z,25.47
2023-07-30T11:36:24.565Z,25.47
2023-07-30T11:37:30.114Z,25.46
2023-07-30T11:38:35.661Z,25.47
2023-07-30T11:39:42.805Z,25.46
2023-07-30T11:40:49.731Z,25.46
2023-07-30T11:41:55.236Z,25.46
2023-07-30T11:43:00.855Z,25.46
2023-07-30T11:44:06.344Z,25.44
2023-07-30T11:45:11.836Z,25.46
2023-07-30T11:46:17.354Z,25.45
2023-07-30T11:47:23.087Z,25.46
2023-07-30T11:48:28.785Z,25.45
2023-07-30T11:49:34.304Z,25.46
2023-07-30T11:50:39.835Z,25.45
2023-07-30T11:51:45.347Z,25.45
2023-07-30T11:52:50.883Z,25.44
2023-07-30T11:53:56.438Z,25.44
2023-07-30T11:55:02.140Z,25.46
2023-07-30T11:56:07.697Z,25.43
2023-07-30T11:57:13.192Z,25.44
2023-07-30T11:58:18.746Z,25.43
2023-07-30T11:59:24.351Z,25.44
2023-07-30T12:00:29.978Z,25.44
2023-07-30T12:01:36.021Z,25.43
2023-07-30T12:02:42.846Z,25.43
2023-07-30T12:03:48.653Z,25.43
2023-07-30T12:05:02.336Z,25.43
2023-07-30T12:06:17.117Z,25.42
2023-07-30T12:07:22.816Z,25.42
2023-07-30T12:08:28.595Z,25.42
2023-07-30T12:09:34.293Z,25.43
2023-07-30T12:10:39.995Z,25.41
2023-07-30T12:11:45.756Z,25.42
2023-07-30T12:14:02.143Z,25.42
2023-07-30T12:15:31.817Z,25.41
2023-07-30T12:16:37.533Z,25.41
2023-07-30T12:17:43.483Z,25.4
2023-07-30T12:18:49.312Z,25.4
2023-07-30T12:19:54.963Z,25.4
2023-07-30T12:21:00.649Z,25.41
2023-07-30T12:22:06.298Z,25.4
2023-07-30T12:23:12.026Z,25.41
2023-07-30T12:24:17.676Z,25.4
2023-07-30T12:25:23.384Z,25.41
2023-07-30T12:26:29.192Z,25.41
2023-07-30T12:27:34.852Z,25.4
2023-07-30T12:28:40.523Z,25.4
2023-07-30T12:29:46.143Z,25.39
2023-07-30T12:30:51.797Z,25.4
2023-07-30T12:31:57.804Z,25.4
2023-07-30T12:33:08.254Z,25.41
2023-07-30T12:34:13.908Z,25.42
2023-07-30T12:35:19.548Z,25.41
2023-07-30T12:36:25.163Z,25.41
2023-07-30T12:37:30.830Z,25.41
2023-07-30T12:38:36.493Z,25.41
2023-07-30T12:39:42.126Z,25.4
2023-07-30T12:40:47.803Z,25.41
2023-07-30T12:41:53.487Z,25.4
2023-07-30T12:42:59.142Z,25.41
2023-07-30T12:44:04.777Z,25.41
2023-07-30T12:45:10.461Z,25.4
2023-07-30T12:46:16.389Z,25.4
2023-07-30T12:47:22.224Z,25.4
2023-07-30T12:48:27.933Z,25.4
2023-07-30T12:49:34.144Z,25.4
2023-07-30T12:50:39.806Z,25.4
2023-07-30T12:51:45.716Z,25.39
2023-07-30T12:52:51.432Z,25.39
2023-07-30T12:53:57.120Z,25.39
2023-07-30T12:55:02.736Z,25.39
2023-07-30T12:56:08.427Z,25.41
2023-07-30T12:57:14.057Z,25.4
2023-07-30T12:58:19.705Z,25.4
2023-07-30T12:59:25.365Z,25.4
2023-07-30T13:00:31.487Z,25.4
2023-07-30T13:01:37.597Z,25.4
2023-07-30T13:02:47.136Z,25.41
2023-07-30T13:03:53.258Z,25.4
2023-07-30T13:04:58.991Z,25.4
2023-07-30T13:06:04.615Z,25.39
2023-07-30T13:07:10.355Z,25.41
2023-07-30T13:08:16.050Z,25.4
2023-07-30T13:09:21.667Z,25.4
2023-07-30T13:10:27.427Z,25.41
2023-07-30T13:11:32.963Z,25.4
2023-07-30T13:12:38.597Z,25.39
2023-07-30T13:13:44.159Z,25.4
2023-07-30T13:14:49.666Z,25.39
2023-07-30T13:15:55.195Z,25.39
2023-07-30T13:17:00.820Z,25.39
2023-07-30T13:18:06.503Z,25.39
2023-07-30T13:19:12.042Z,25.4
2023-07-30T13:20:19.842Z,25.4
2023-07-30T13:21:25.661Z,25.4
2023-07-30T13:22:31.231Z,25.39
2023-07-30T13:23:36.748Z,25.39
2023-07-30T13:24:42.363Z,25.4
2023-07-30T13:25:47.916Z,25.39
2023-07-30T13:26:53.452Z,25.4
2023-07-30T13:27:59.174Z,25.39
2023-07-30T13:29:04.867Z,25.4
2023-07-30T13:30:10.419Z,25.4
2023-07-30T13:31:16.127Z,25.4
2023-07-30T13:32:21.854Z,25.4
2023-07-30T13:33:27.491Z,25.4
2023-07-30T13:34:33.030Z,25.4
2023-07-30T13:35:38.563Z,25.4
2023-07-30T13:36:44.105Z,25.4
2023-07-30T13:37:49.695Z,25.4
2023-07-30T13:38:55.437Z,25.4
2023-07-30T13:40:00.967Z,25.4
2023-07-30T13:41:06.523Z,25.4
2023-07-30T13:42:12.061Z,25.4
2023-07-30T13:43:17.600Z,25.39
2023-07-30T13:44:23.169Z,25.39
2023-07-30T13:45:28.712Z,25.4
2023-07-30T13:46:34.274Z,25.38
2023-07-30T13:47:40.064Z,25.38
2023-07-30T13:48:45.936Z,25.38
2023-07-30T13:49:51.504Z,25.38
2023-07-30T13:50:57.009Z,25.38
2023-07-30T13:52:02.503Z,25.39
2023-07-30T13:53:08.040Z,25.38
2023-07-30T13:54:13.615Z,25.38
2023-07-30T13:55:19.204Z,25.38
2023-07-30T13:56:24.716Z,25.38
2023-07-30T13:57:30.230Z,25.39
2023-07-30T13:58:39.471Z,25.38
2023-07-30T13:59:45.029Z,25.39
2023-07-30T14:00:50.579Z,25.39
2023-07-30T14:01:56.306Z,25.39
2023-07-30T14:03:01.958Z,25.39
2023-07-30T14:04:07.641Z,25.39
2023-07-30T14:05:13.225Z,25.39
2023-07-30T14:06:18.778Z,25.38
2023-07-30T14:07:24.281Z,25.37
2023-07-30T14:08:29.791Z,25.38
2023-07-30T14:09:35.299Z,25.38
2023-07-30T14:10:40.836Z,25.38
2023-07-30T14:11:46.355Z,25.39
2023-07-30T14:12:52.103Z,25.39
2023-07-30T14:13:57.781Z,25.39